Flight Track Log - Related Links

Times and Time Zones

All times are in EDT time to prevent confusion due to time zone crossing. See the LXJ535 flight status page for this flight to view local times or setup timezone preferences in your user account.

Time Position Orientation Groundspeed Altitude Reporting Facility
EDT Latitude Longitude Course Direction KTS MPH feet Rate Location/Type
Sun 02:31:38 PM 41.3281 -70.1097 324° Northwest 268 308 6,500  Level Boston Center
Sun 02:32:38 PM 41.3611 -70.2025 295° West 281 323 10,100 3,600 Climbing Boston Center
Sun 02:33:38 PM 41.3969 -70.3231 292° West 298 343 13,700 3,850 Climbing Boston Center
Sun 02:34:38 PM 41.4344 -70.4436 293° West 329 379 17,800 3,550 Climbing Boston Center
Sun 02:35:38 PM 41.4742 -70.5728 292° West 363 418 20,800 2,050 Climbing Boston Center
Sun 02:36:00 PM 41.4068 -70.6586 298° West  Level FlightAware Approximate
Sun 02:36:38 PM 41.5161 -70.7128 292° West 390 449 21,900  Level Boston Center
Sun 02:37:38 PM 41.5511 -70.8339 291° West 390 449 22,000 50 Climbing Boston Center
Sun 02:38:38 PM 41.6014 -71.0019 292° West 416 479 22,000  Level Boston Center
Sun 02:39:38 PM 41.6428 -71.1483 291° West 422 486 22,000  Level Boston Center
Sun 02:40:38 PM 41.6861 -71.2919 292° West 427 491 22,000  Level Boston Center
Sun 02:41:50 PM 41.7439 -71.4608 295° West 421 484 22,000  Level Boston Center
Sun 02:42:50 PM 41.8072 -71.5822 305° West 411 473 22,000  Level Boston Center
Sun 02:43:50 PM 41.8769 -71.7042 308° West 404 465 22,000  Level Boston Center
Sun 02:44:50 PM 41.9258 -71.8431 295° West 409 471 22,000 -600 Level Boston Center
Sun 02:45:50 PM 41.9639 -71.9878 290° West 409 471 20,800 -1,350 Descending Boston Center
Sun 02:46:50 PM 42.0019 -72.1217 291° West 404 465 19,300 -1,450 Descending Boston Center
Sun 02:47:50 PM 42.0356 -72.2417 291° West 384 442 17,900 -1,350 Descending Boston Center
Sun 02:48:50 PM 42.0731 -72.3842 290° West 378 435 16,600 -950 Descending Boston Center
Sun 02:49:50 PM 42.1044 -72.5017 290° West 373 429 16,000 -300 Descending Boston Center
Sun 02:50:50 PM 42.1439 -72.6417 291° West 368 423 16,000  Level Boston Center
Sun 02:51:50 PM 42.1581 -72.7733 278° West 362 417 16,000  Level Boston Center
Sun 02:52:50 PM 42.1494 -72.8967 265° West 357 411 16,000  Level Boston Center
Sun 02:53:50 PM 42.1403 -73.0478 265° West 370 426 16,000  Level Boston Center
Sun 02:54:50 PM 42.1333 -73.1708 266° West 370 426 16,000  Level Boston Center
Sun 02:55:50 PM 42.1219 -73.3247 264° West 370 426 16,000  Level Boston Center
Sun 02:56:50 PM 42.1125 -73.4558 264° West 375 432 16,000  Level Boston Center
Sun 02:57:50 PM 42.1006 -73.5986 264° West 386 444 16,000  Level Boston Center
Sun 02:58:50 PM 42.0906 -73.7550 265° West 392 451 16,000  Level Boston Center
Sun 02:59:50 PM 42.0806 -73.8833 264° West 387 445 16,000 -45 Level Boston Center
Sun 03:01:02 PM 42.0639 -74.0369 262° West 387 445 15,900 -455 Descending Boston Center
Sun 03:02:02 PM 41.9731 -74.1294 217° Southwest 350 403 15,000 -1,000 Descending Boston Center
Sun 03:03:02 PM 41.8758 -74.2133 213° Southwest 355 409 13,900 -1,000 Descending Boston Center
Sun 03:04:02 PM 41.7978 -74.2753 211° Southwest 375 432 13,000 -1,150 Descending Boston Center
Sun 03:05:02 PM 41.7028 -74.3558 212° Southwest 375 432 11,600 -1,600 Descending Boston Center
Sun 03:06:02 PM 41.6350 -74.4122 212° Southwest 344 396 9,800 -1,955 Descending Boston Center
Sun 03:07:14 PM 41.5567 -74.4764 212° Southwest 290 334 7,300 -1,727 Descending Boston Center
Sun 03:08:14 PM 41.4828 -74.5350 211° Southwest 284 327 6,000 -456 Descending Boston Center
Sun 03:10:05 PM 41.3500 -74.6167 205° Southwest 272 313 6,000 -70 Level New York TRACON
Sun 03:11:05 PM 41.2833 -74.6000 169° South 268 308 5,800 -550 Descending New York TRACON
Sun 03:12:05 PM 41.2000 -74.5833 171° South 269 310 4,900 -900 Descending New York TRACON
Sun 03:13:05 PM 41.1333 -74.5667 169° South 260 299 4,000 -450 Descending New York TRACON
Sun 03:14:05 PM 41.0667 -74.5167 151° Southeast 259 298 4,000 -350 Level New York TRACON
Sun 03:15:05 PM 41.0167 -74.4667 143° Southeast 248 285 3,300 -500 Descending New York TRACON
Sun 03:16:05 PM 40.9667 -74.4167 143° Southeast 244 281 3,000 -150 Descending New York TRACON
Sun 03:17:05 PM 40.9000 -74.3667 150° Southeast 237 273 3,000 -650 Level New York TRACON
Sun 03:18:05 PM 40.8500 -74.3667 180° South 201 231 1,700 -900 Descending New York TRACON
Sun 03:19:05 PM 40.8167 -74.4000 217° Southwest 190 219 1,200 -500 Descending New York TRACON
Sun 03:21:00 PM 40.7993 -74.4149 150° Southeast  Level Estimated
Sun 03:28:00 PM 40.7993 -74.4149 150° Southeast  Level Estimated
Sun 03:29:00 PM 40.7993 -74.4149 150° Southeast  Level Estimated
Sun 03:30:00 PM 40.7993 -74.4149 150° Southeast  Level Estimated

Login

Don't have an account? Register now (free) for customized features, flight alerts, and more!